sensor_id;sensor_type;location;lat;lon;timestamp;temperature;humidity
67093;SHT31;54011;50.772;7.730;2022-09-16T00:02:14;12.49;81.62
67093;SHT31;54011;50.772;7.730;2022-09-16T00:04:40;12.44;82.07
67093;SHT31;54011;50.772;7.730;2022-09-16T00:07:05;12.41;81.82
67093;SHT31;54011;50.772;7.730;2022-09-16T00:09:30;12.41;82.00
67093;SHT31;54011;50.772;7.730;2022-09-16T00:11:56;12.34;82.68
67093;SHT31;54011;50.772;7.730;2022-09-16T00:14:21;12.20;83.03
67093;SHT31;54011;50.772;7.730;2022-09-16T00:16:47;12.12;83.68
67093;SHT31;54011;50.772;7.730;2022-09-16T00:19:12;12.12;83.58
67093;SHT31;54011;50.772;7.730;2022-09-16T00:21:38;12.04;83.70
67093;SHT31;54011;50.772;7.730;2022-09-16T00:24:03;12.03;84.16
67093;SHT31;54011;50.772;7.730;2022-09-16T00:26:29;11.96;84.66
67093;SHT31;54011;50.772;7.730;2022-09-16T00:28:55;11.98;84.83
67093;SHT31;54011;50.772;7.730;2022-09-16T00:31:20;12.00;84.70
67093;SHT31;54011;50.772;7.730;2022-09-16T00:33:46;12.01;84.24
67093;SHT31;54011;50.772;7.730;2022-09-16T00:36:17;11.97;84.80
67093;SHT31;54011;50.772;7.730;2022-09-16T00:38:42;11.94;84.79
67093;SHT31;54011;50.772;7.730;2022-09-16T00:41:13;12.01;84.54
67093;SHT31;54011;50.772;7.730;2022-09-16T00:43:57;12.00;84.26
67093;SHT31;54011;50.772;7.730;2022-09-16T00:49:25;12.01;84.69
67093;SHT31;54011;50.772;7.730;2022-09-16T00:51:51;12.04;84.61
67093;SHT31;54011;50.772;7.730;2022-09-16T00:54:19;12.04;84.94
67093;SHT31;54011;50.772;7.730;2022-09-16T00:56:47;12.03;84.98
67093;SHT31;54011;50.772;7.730;2022-09-16T00:59:29;11.94;85.07
67093;SHT31;54011;50.772;7.730;2022-09-16T01:01:57;11.91;85.90
67093;SHT31;54011;50.772;7.730;2022-09-16T01:04:26;11.86;85.81
67093;SHT31;54011;50.772;7.730;2022-09-16T01:06:53;11.83;85.84
67093;SHT31;54011;50.772;7.730;2022-09-16T01:09:21;11.75;85.94
67093;SHT31;54011;50.772;7.730;2022-09-16T01:11:47;11.70;86.69
67093;SHT31;54011;50.772;7.730;2022-09-16T01:14:12;11.66;86.51
67093;SHT31;54011;50.772;7.730;2022-09-16T01:17:16;11.63;86.78
67093;SHT31;54011;50.772;7.730;2022-09-16T01:26:04;11.63;86.70
67093;SHT31;54011;50.772;7.730;2022-09-16T01:34:52;11.56;86.98
67093;SHT31;54011;50.772;7.730;2022-09-16T01:37:49;11.61;86.96
67093;SHT31;54011;50.772;7.730;2022-09-16T01:40:32;11.55;87.33
67093;SHT31;54011;50.772;7.730;2022-09-16T01:43:10;11.54;88.12
67093;SHT31;54011;50.772;7.730;2022-09-16T01:45:41;11.46;87.86
67093;SHT31;54011;50.772;7.730;2022-09-16T01:48:33;11.46;87.52
67093;SHT31;54011;50.772;7.730;2022-09-16T01:53:56;11.49;87.25
67093;SHT31;54011;50.772;7.730;2022-09-16T01:59:05;11.48;87.42
67093;SHT31;54011;50.772;7.730;2022-09-16T02:01:46;11.51;87.71
67093;SHT31;54011;50.772;7.730;2022-09-16T02:04:21;11.43;87.78
67093;SHT31;54011;50.772;7.730;2022-09-16T02:06:49;11.45;87.82
67093;SHT31;54011;50.772;7.730;2022-09-16T02:09:20;11.45;88.21
67093;SHT31;54011;50.772;7.730;2022-09-16T02:11:49;11.39;88.10
67093;SHT31;54011;50.772;7.730;2022-09-16T02:14:27;11.34;88.67
67093;SHT31;54011;50.772;7.730;2022-09-16T02:17:05;11.31;88.18
67093;SHT31;54011;50.772;7.730;2022-09-16T02:19:38;11.28;88.44
67093;SHT31;54011;50.772;7.730;2022-09-16T02:22:16;11.27;88.56
67093;SHT31;54011;50.772;7.730;2022-09-16T02:24:46;11.24;88.71
67093;SHT31;54011;50.772;7.730;2022-09-16T02:27:15;11.17;88.91
67093;SHT31;54011;50.772;7.730;2022-09-16T02:29:51;11.15;88.86
67093;SHT31;54011;50.772;7.730;2022-09-16T02:32:19;11.14;88.91
67093;SHT31;54011;50.772;7.730;2022-09-16T02:34:48;11.11;88.85
67093;SHT31;54011;50.772;7.730;2022-09-16T02:37:18;10.94;89.58
67093;SHT31;54011;50.772;7.730;2022-09-16T02:39:48;11.00;89.51
67093;SHT31;54011;50.772;7.730;2022-09-16T02:42:15;11.05;89.13
67093;SHT31;54011;50.772;7.730;2022-09-16T02:44:41;11.04;88.99
67093;SHT31;54011;50.772;7.730;2022-09-16T02:47:18;11.04;89.13
67093;SHT31;54011;50.772;7.730;2022-09-16T02:49:54;10.96;89.04
67093;SHT31;54011;50.772;7.730;2022-09-16T02:58:11;11.17;87.95
67093;SHT31;54011;50.772;7.730;2022-09-16T03:00:39;11.15;88.04
67093;SHT31;54011;50.772;7.730;2022-09-16T03:03:07;11.17;87.97
67093;SHT31;54011;50.772;7.730;2022-09-16T03:05:32;11.11;88.62
67093;SHT31;54011;50.772;7.730;2022-09-16T03:07:58;11.15;88.08
67093;SHT31;54011;50.772;7.730;2022-09-16T03:10:36;11.11;88.45
67093;SHT31;54011;50.772;7.730;2022-09-16T03:13:21;11.07;88.92
67093;SHT31;54011;50.772;7.730;2022-09-16T03:21:39;10.98;89.34
67093;SHT31;54011;50.772;7.730;2022-09-16T03:24:14;11.00;89.78
67093;SHT31;54011;50.772;7.730;2022-09-16T03:26:57;10.96;90.27
67093;SHT31;54011;50.772;7.730;2022-09-16T03:29:33;10.94;90.15
67093;SHT31;54011;50.772;7.730;2022-09-16T03:32:24;11.00;90.04
67093;SHT31;54011;50.772;7.730;2022-09-16T03:35:05;11.05;89.70
67093;SHT31;54011;50.772;7.730;2022-09-16T03:37:34;11.07;89.68
67093;SHT31;54011;50.772;7.730;2022-09-16T03:40:06;11.14;89.51
67093;SHT31;54011;50.772;7.730;2022-09-16T03:42:32;11.08;89.53
67093;SHT31;54011;50.772;7.730;2022-09-16T03:44:57;11.12;89.44
67093;SHT31;54011;50.772;7.730;2022-09-16T03:47:23;11.14;89.43
67093;SHT31;54011;50.772;7.730;2022-09-16T03:49:48;11.19;89.42
67093;SHT31;54011;50.772;7.730;2022-09-16T03:52:15;11.15;89.53
67093;SHT31;54011;50.772;7.730;2022-09-16T03:54:43;11.19;89.29
67093;SHT31;54011;50.772;7.730;2022-09-16T03:57:08;11.27;88.95
67093;SHT31;54011;50.772;7.730;2022-09-16T03:59:34;11.34;88.84
67093;SHT31;54011;50.772;7.730;2022-09-16T04:01:59;11.39;88.73
67093;SHT31;54011;50.772;7.730;2022-09-16T04:04:25;11.39;88.84
67093;SHT31;54011;50.772;7.730;2022-09-16T04:06:50;11.38;88.62
67093;SHT31;54011;50.772;7.730;2022-09-16T04:09:19;11.40;88.65
67093;SHT31;54011;50.772;7.730;2022-09-16T04:11:44;11.39;89.02
67093;SHT31;54011;50.772;7.730;2022-09-16T04:14:10;11.38;88.89
67093;SHT31;54011;50.772;7.730;2022-09-16T04:16:35;11.45;88.82
67093;SHT31;54011;50.772;7.730;2022-09-16T04:19:01;11.52;88.58
67093;SHT31;54011;50.772;7.730;2022-09-16T04:21:26;11.39;89.47
67093;SHT31;54011;50.772;7.730;2022-09-16T04:23:54;11.42;90.08
67093;SHT31;54011;50.772;7.730;2022-09-16T04:26:20;11.39;89.50
67093;SHT31;54011;50.772;7.730;2022-09-16T04:28:46;11.38;89.71
67093;SHT31;54011;50.772;7.730;2022-09-16T04:31:13;11.45;90.10
67093;SHT31;54011;50.772;7.730;2022-09-16T04:33:39;11.39;90.33
67093;SHT31;54011;50.772;7.730;2022-09-16T04:36:10;11.39;90.64
67093;SHT31;54011;50.772;7.730;2022-09-16T04:38:37;11.43;90.52
67093;SHT31;54011;50.772;7.730;2022-09-16T04:41:05;11.43;90.74
67093;SHT31;54011;50.772;7.730;2022-09-16T04:43:31;11.32;91.23
67093;SHT31;54011;50.772;7.730;2022-09-16T04:45:56;11.31;91.75
67093;SHT31;54011;50.772;7.730;2022-09-16T04:48:22;11.32;92.26
67093;SHT31;54011;50.772;7.730;2022-09-16T04:50:47;11.27;92.21
67093;SHT31;54011;50.772;7.730;2022-09-16T04:53:12;11.28;92.07
67093;SHT31;54011;50.772;7.730;2022-09-16T04:55:38;11.19;92.63
67093;SHT31;54011;50.772;7.730;2022-09-16T04:58:03;11.25;92.94
67093;SHT31;54011;50.772;7.730;2022-09-16T05:00:29;11.19;93.01
67093;SHT31;54011;50.772;7.730;2022-09-16T05:02:54;11.24;92.59
67093;SHT31;54011;50.772;7.730;2022-09-16T05:05:20;11.18;92.49
67093;SHT31;54011;50.772;7.730;2022-09-16T05:07:45;11.12;92.60
67093;SHT31;54011;50.772;7.730;2022-09-16T05:10:11;11.14;92.59
67093;SHT31;54011;50.772;7.730;2022-09-16T05:12:37;11.03;92.77
67093;SHT31;54011;50.772;7.730;2022-09-16T05:15:03;11.01;92.74
67093;SHT31;54011;50.772;7.730;2022-09-16T05:17:29;11.04;92.68
67093;SHT31;54011;50.772;7.730;2022-09-16T05:19:55;10.87;93.31
67093;SHT31;54011;50.772;7.730;2022-09-16T05:22:20;10.91;93.19
67093;SHT31;54011;50.772;7.730;2022-09-16T05:24:46;10.83;93.32
67093;SHT31;54011;50.772;7.730;2022-09-16T05:27:12;10.90;93.01
67093;SHT31;54011;50.772;7.730;2022-09-16T05:29:37;10.90;93.03
67093;SHT31;54011;50.772;7.730;2022-09-16T05:32:02;10.94;92.96
67093;SHT31;54011;50.772;7.730;2022-09-16T05:34:28;10.85;93.15
67093;SHT31;54011;50.772;7.730;2022-09-16T05:36:54;10.87;93.35
67093;SHT31;54011;50.772;7.730;2022-09-16T05:39:21;10.93;93.03
67093;SHT31;54011;50.772;7.730;2022-09-16T05:41:47;10.96;92.98
67093;SHT31;54011;50.772;7.730;2022-09-16T05:44:15;10.96;92.98
67093;SHT31;54011;50.772;7.730;2022-09-16T05:46:41;10.94;93.13
67093;SHT31;54011;50.772;7.730;2022-09-16T05:49:08;10.98;93.12
67093;SHT31;54011;50.772;7.730;2022-09-16T05:51:33;10.98;93.40
67093;SHT31;54011;50.772;7.730;2022-09-16T05:53:59;11.07;93.07
67093;SHT31;54011;50.772;7.730;2022-09-16T05:56:26;11.04;93.02
67093;SHT31;54011;50.772;7.730;2022-09-16T05:58:54;11.01;93.19
67093;SHT31;54011;50.772;7.730;2022-09-16T06:01:26;11.17;93.30
67093;SHT31;54011;50.772;7.730;2022-09-16T06:03:52;11.22;93.06
67093;SHT31;54011;50.772;7.730;2022-09-16T06:06:25;11.39;93.14
67093;SHT31;54011;50.772;7.730;2022-09-16T06:08:53;11.55;92.23
67093;SHT31;54011;50.772;7.730;2022-09-16T06:11:19;11.79;91.87
67093;SHT31;54011;50.772;7.730;2022-09-16T06:13:45;11.96;91.09
67093;SHT31;54011;50.772;7.730;2022-09-16T06:16:11;12.38;90.53
67093;SHT31;54011;50.772;7.730;2022-09-16T06:18:38;12.34;90.00
67093;SHT31;54011;50.772;7.730;2022-09-16T06:21:10;11.90;91.36
67093;SHT31;54011;50.772;7.730;2022-09-16T06:23:37;11.75;92.10
67093;SHT31;54011;50.772;7.730;2022-09-16T06:26:05;11.67;92.99
67093;SHT31;54011;50.772;7.730;2022-09-16T06:28:31;11.67;93.35
67093;SHT31;54011;50.772;7.730;2022-09-16T06:31:10;11.70;94.04
67093;SHT31;54011;50.772;7.730;2022-09-16T06:33:36;11.63;93.58
67093;SHT31;54011;50.772;7.730;2022-09-16T06:36:07;11.73;93.80
67093;SHT31;54011;50.772;7.730;2022-09-16T06:38:34;11.75;93.82
67093;SHT31;54011;50.772;7.730;2022-09-16T06:41:00;11.75;94.10
67093;SHT31;54011;50.772;7.730;2022-09-16T06:43:26;11.85;93.58
67093;SHT31;54011;50.772;7.730;2022-09-16T06:46:00;11.86;93.16
67093;SHT31;54011;50.772;7.730;2022-09-16T06:48:27;11.96;93.48
67093;SHT31;54011;50.772;7.730;2022-09-16T06:51:08;12.06;93.76
67093;SHT31;54011;50.772;7.730;2022-09-16T06:53:34;11.97;93.01
67093;SHT31;54011;50.772;7.730;2022-09-16T06:56:05;11.97;93.65
67093;SHT31;54011;50.772;7.730;2022-09-16T06:58:35;12.10;92.71
67093;SHT31;54011;50.772;7.730;2022-09-16T07:01:08;12.23;93.02
67093;SHT31;54011;50.772;7.730;2022-09-16T07:03:37;12.21;91.55
67093;SHT31;54011;50.772;7.730;2022-09-16T07:06:03;12.21;91.78
67093;SHT31;54011;50.772;7.730;2022-09-16T07:08:33;12.33;92.37
67093;SHT31;54011;50.772;7.730;2022-09-16T07:11:03;12.26;92.28
67093;SHT31;54011;50.772;7.730;2022-09-16T07:13:29;12.35;91.84
67093;SHT31;54011;50.772;7.730;2022-09-16T07:16:00;12.41;91.01
67093;SHT31;54011;50.772;7.730;2022-09-16T07:18:26;12.57;91.76
67093;SHT31;54011;50.772;7.730;2022-09-16T07:20:52;12.48;89.32
67093;SHT31;54011;50.772;7.730;2022-09-16T07:23:20;12.58;89.89
67093;SHT31;54011;50.772;7.730;2022-09-16T07:25:46;12.57;89.35
67093;SHT31;54011;50.772;7.730;2022-09-16T07:28:11;12.52;89.94
67093;SHT31;54011;50.772;7.730;2022-09-16T07:30:37;12.49;90.49
67093;SHT31;54011;50.772;7.730;2022-09-16T07:33:02;12.81;89.37
67093;SHT31;54011;50.772;7.730;2022-09-16T07:35:28;12.69;88.98
67093;SHT31;54011;50.772;7.730;2022-09-16T07:37:54;12.64;90.08
67093;SHT31;54011;50.772;7.730;2022-09-16T07:40:21;12.62;90.24
67093;SHT31;54011;50.772;7.730;2022-09-16T07:42:46;12.54;89.15
67093;SHT31;54011;50.772;7.730;2022-09-16T07:45:12;12.68;90.34
67093;SHT31;54011;50.772;7.730;2022-09-16T07:47:37;12.55;89.63
67093;SHT31;54011;50.772;7.730;2022-09-16T07:50:03;12.37;90.07
67093;SHT31;54011;50.772;7.730;2022-09-16T07:52:29;12.28;89.12
67093;SHT31;54011;50.772;7.730;2022-09-16T07:54:54;12.30;89.58
67093;SHT31;54011;50.772;7.730;2022-09-16T07:57:21;12.24;90.63
67093;SHT31;54011;50.772;7.730;2022-09-16T07:59:47;12.31;90.66
67093;SHT31;54011;50.772;7.730;2022-09-16T08:02:12;12.31;90.69
67093;SHT31;54011;50.772;7.730;2022-09-16T08:04:37;12.47;89.45
67093;SHT31;54011;50.772;7.730;2022-09-16T08:07:04;12.55;88.67
67093;SHT31;54011;50.772;7.730;2022-09-16T08:09:30;12.57;87.82
67093;SHT31;54011;50.772;7.730;2022-09-16T08:11:56;12.69;88.30
67093;SHT31;54011;50.772;7.730;2022-09-16T08:14:22;12.78;87.92
67093;SHT31;54011;50.772;7.730;2022-09-16T08:16:47;13.57;85.89
67093;SHT31;54011;50.772;7.730;2022-09-16T08:19:15;13.79;85.10
67093;SHT31;54011;50.772;7.730;2022-09-16T08:21:41;14.14;81.82
67093;SHT31;54011;50.772;7.730;2022-09-16T08:24:08;14.04;83.79
67093;SHT31;54011;50.772;7.730;2022-09-16T08:26:34;13.73;82.27
67093;SHT31;54011;50.772;7.730;2022-09-16T08:29:00;13.71;83.99
67093;SHT31;54011;50.772;7.730;2022-09-16T08:31:25;13.51;85.07
67093;SHT31;54011;50.772;7.730;2022-09-16T08:33:51;13.13;86.24
67093;SHT31;54011;50.772;7.730;2022-09-16T08:36:20;13.09;87.19
67093;SHT31;54011;50.772;7.730;2022-09-16T08:38:47;12.92;89.03
67093;SHT31;54011;50.772;7.730;2022-09-16T08:46:25;12.75;85.83
67093;SHT31;54011;50.772;7.730;2022-09-16T08:49:05;12.99;86.79
67093;SHT31;54011;50.772;7.730;2022-09-16T08:51:41;13.30;85.06
67093;SHT31;54011;50.772;7.730;2022-09-16T08:54:22;14.05;82.93
67093;SHT31;54011;50.772;7.730;2022-09-16T08:56:49;13.79;83.04
67093;SHT31;54011;50.772;7.730;2022-09-16T08:59:18;14.76;79.73
67093;SHT31;54011;50.772;7.730;2022-09-16T09:02:17;14.77;77.89
67093;SHT31;54011;50.772;7.730;2022-09-16T09:04:44;15.49;75.57
67093;SHT31;54011;50.772;7.730;2022-09-16T09:10:23;15.90;74.29
67093;SHT31;54011;50.772;7.730;2022-09-16T09:13:04;16.14;72.97
67093;SHT31;54011;50.772;7.730;2022-09-16T09:15:46;16.54;71.28
67093;SHT31;54011;50.772;7.730;2022-09-16T09:20:55;16.68;67.72
67093;SHT31;54011;50.772;7.730;2022-09-16T09:23:41;15.39;73.59
67093;SHT31;54011;50.772;7.730;2022-09-16T09:26:21;14.76;76.12
67093;SHT31;54011;50.772;7.730;2022-09-16T09:34:56;14.12;75.50
67093;SHT31;54011;50.772;7.730;2022-09-16T09:43:13;14.15;76.62
67093;SHT31;54011;50.772;7.730;2022-09-16T09:45:54;14.15;76.69
67093;SHT31;54011;50.772;7.730;2022-09-16T09:48:23;15.03;75.36
67093;SHT31;54011;50.772;7.730;2022-09-16T09:50:51;16.43;70.45
67093;SHT31;54011;50.772;7.730;2022-09-16T09:53:28;17.18;66.55
67093;SHT31;54011;50.772;7.730;2022-09-16T09:56:03;18.19;63.06
67093;SHT31;54011;50.772;7.730;2022-09-16T10:01:39;15.85;68.52
67093;SHT31;54011;50.772;7.730;2022-09-16T10:04:13;15.27;69.74
67093;SHT31;54011;50.772;7.730;2022-09-16T10:06:38;15.01;69.27
67093;SHT31;54011;50.772;7.730;2022-09-16T10:09:09;15.21;69.27
67093;SHT31;54011;50.772;7.730;2022-09-16T10:11:47;15.27;69.27
67093;SHT31;54011;50.772;7.730;2022-09-16T10:16:51;15.56;69.52
67093;SHT31;54011;50.772;7.730;2022-09-16T10:19:23;15.86;69.76
67093;SHT31;54011;50.772;7.730;2022-09-16T10:21:52;17.09;67.12
67093;SHT31;54011;50.772;7.730;2022-09-16T10:24:35;16.47;65.17
67093;SHT31;54011;50.772;7.730;2022-09-16T10:27:19;16.98;63.55
67093;SHT31;54011;50.772;7.730;2022-09-16T10:29:45;17.26;61.54
67093;SHT31;54011;50.772;7.730;2022-09-16T10:32:17;17.49;60.27
67093;SHT31;54011;50.772;7.730;2022-09-16T10:34:43;18.48;59.31
67093;SHT31;54011;50.772;7.730;2022-09-16T10:39:39;17.63;61.13
67093;SHT31;54011;50.772;7.730;2022-09-16T10:42:19;16.75;63.81
67093;SHT31;54011;50.772;7.730;2022-09-16T10:44:45;16.33;64.99
67093;SHT31;54011;50.772;7.730;2022-09-16T10:47:30;16.16;66.36
67093;SHT31;54011;50.772;7.730;2022-09-16T10:50:01;17.18;62.59
67093;SHT31;54011;50.772;7.730;2022-09-16T10:52:31;17.74;62.82
67093;SHT31;54011;50.772;7.730;2022-09-16T10:55:09;18.57;58.45
67093;SHT31;54011;50.772;7.730;2022-09-16T10:57:37;18.22;59.49
67093;SHT31;54011;50.772;7.730;2022-09-16T11:00:11;18.80;55.07
67093;SHT31;54011;50.772;7.730;2022-09-16T11:08:05;16.05;63.68
67093;SHT31;54011;50.772;7.730;2022-09-16T11:22:18;13.27;82.54
67093;SHT31;54011;50.772;7.730;2022-09-16T11:27:43;13.58;80.99
67093;SHT31;54011;50.772;7.730;2022-09-16T11:30:13;14.53;78.50
67093;SHT31;54011;50.772;7.730;2022-09-16T11:57:05;13.19;80.73
67093;SHT31;54011;50.772;7.730;2022-09-16T11:59:46;13.00;82.42
67093;SHT31;54011;50.772;7.730;2022-09-16T12:02:24;14.29;79.57
67093;SHT31;54011;50.772;7.730;2022-09-16T12:05:02;15.93;72.35
67093;SHT31;54011;50.772;7.730;2022-09-16T12:07:40;17.20;68.50
67093;SHT31;54011;50.772;7.730;2022-09-16T12:10:31;17.87;66.55
67093;SHT31;54011;50.772;7.730;2022-09-16T12:13:08;17.62;64.87
67093;SHT31;54011;50.772;7.730;2022-09-16T12:15:50;18.29;62.18
67093;SHT31;54011;50.772;7.730;2022-09-16T12:21:07;17.70;68.06
67093;SHT31;54011;50.772;7.730;2022-09-16T12:23:39;19.02;65.38
67093;SHT31;54011;50.772;7.730;2022-09-16T12:26:24;17.66;63.96
67093;SHT31;54011;50.772;7.730;2022-09-16T12:29:11;17.97;67.76
67093;SHT31;54011;50.772;7.730;2022-09-16T12:31:52;17.33;68.98
67093;SHT31;54011;50.772;7.730;2022-09-16T12:34:26;16.41;70.37
67093;SHT31;54011;50.772;7.730;2022-09-16T12:37:02;15.95;72.97
67093;SHT31;54011;50.772;7.730;2022-09-16T12:39:29;15.11;72.66
67093;SHT31;54011;50.772;7.730;2022-09-16T12:47:26;14.43;72.16
67093;SHT31;54011;50.772;7.730;2022-09-16T12:55:35;14.39;69.16
67093;SHT31;54011;50.772;7.730;2022-09-16T13:03:27;16.72;62.43
67093;SHT31;54011;50.772;7.730;2022-09-16T13:05:54;15.92;63.64
67093;SHT31;54011;50.772;7.730;2022-09-16T13:08:25;15.36;66.09
67093;SHT31;54011;50.772;7.730;2022-09-16T13:11:01;15.10;66.49
67093;SHT31;54011;50.772;7.730;2022-09-16T13:13:32;15.01;67.79
67093;SHT31;54011;50.772;7.730;2022-09-16T13:16:00;14.25;67.46
67093;SHT31;54011;50.772;7.730;2022-09-16T13:21:24;13.91;70.34
67093;SHT31;54011;50.772;7.730;2022-09-16T13:26:40;14.21;70.64
67093;SHT31;54011;50.772;7.730;2022-09-16T13:31:54;13.42;74.60
67093;SHT31;54011;50.772;7.730;2022-09-16T13:34:20;13.05;77.05
67093;SHT31;54011;50.772;7.730;2022-09-16T13:36:46;12.51;81.27
67093;SHT31;54011;50.772;7.730;2022-09-16T13:39:14;12.00;84.89
67093;SHT31;54011;50.772;7.730;2022-09-16T13:47:35;10.97;89.44
67093;SHT31;54011;50.772;7.730;2022-09-16T13:50:11;10.90;89.64
67093;SHT31;54011;50.772;7.730;2022-09-16T13:52:38;10.78;89.33
67093;SHT31;54011;50.772;7.730;2022-09-16T13:55:07;10.55;88.00
67093;SHT31;54011;50.772;7.730;2022-09-16T14:00:29;10.32;89.47
67093;SHT31;54011;50.772;7.730;2022-09-16T14:08:10;10.84;90.08
67093;SHT31;54011;50.772;7.730;2022-09-16T14:13:41;12.47;83.60
67093;SHT31;54011;50.772;7.730;2022-09-16T14:16:16;13.32;82.94
67093;SHT31;54011;50.772;7.730;2022-09-16T14:21:41;15.17;75.47
67093;SHT31;54011;50.772;7.730;2022-09-16T14:24:17;15.42;74.99
67093;SHT31;54011;50.772;7.730;2022-09-16T14:26:53;14.98;76.66
67093;SHT31;54011;50.772;7.730;2022-09-16T14:29:19;14.01;79.22
67093;SHT31;54011;50.772;7.730;2022-09-16T14:31:53;13.23;83.24
67093;SHT31;54011;50.772;7.730;2022-09-16T14:34:35;12.61;86.10
67093;SHT31;54011;50.772;7.730;2022-09-16T14:37:01;12.44;85.59
67093;SHT31;54011;50.772;7.730;2022-09-16T14:39:29;11.91;86.13
67093;SHT31;54011;50.772;7.730;2022-09-16T14:42:01;11.76;87.88
67093;SHT31;54011;50.772;7.730;2022-09-16T14:44:35;11.67;89.06
67093;SHT31;54011;50.772;7.730;2022-09-16T14:47:06;11.87;88.71
67093;SHT31;54011;50.772;7.730;2022-09-16T14:49:35;12.10;89.03
67093;SHT31;54011;50.772;7.730;2022-09-16T14:52:01;12.20;88.22
67093;SHT31;54011;50.772;7.730;2022-09-16T14:54:27;12.47;88.45
67093;SHT31;54011;50.772;7.730;2022-09-16T14:57:01;12.42;87.61
67093;SHT31;54011;50.772;7.730;2022-09-16T14:59:31;12.49;88.40
67093;SHT31;54011;50.772;7.730;2022-09-16T15:02:03;12.41;88.20
67093;SHT31;54011;50.772;7.730;2022-09-16T15:04:32;12.44;87.42
67093;SHT31;54011;50.772;7.730;2022-09-16T15:07:21;12.57;87.16
67093;SHT31;54011;50.772;7.730;2022-09-16T15:09:55;12.66;88.20
67093;SHT31;54011;50.772;7.730;2022-09-16T15:12:27;12.69;88.31
67093;SHT31;54011;50.772;7.730;2022-09-16T15:14:53;12.45;88.11
67093;SHT31;54011;50.772;7.730;2022-09-16T15:17:21;12.44;87.21
67093;SHT31;54011;50.772;7.730;2022-09-16T15:19:52;12.68;87.33
67093;SHT31;54011;50.772;7.730;2022-09-16T15:22:19;14.91;78.41
67093;SHT31;54011;50.772;7.730;2022-09-16T15:24:46;15.81;76.70
67093;SHT31;54011;50.772;7.730;2022-09-16T15:27:21;16.57;74.51
67093;SHT31;54011;50.772;7.730;2022-09-16T15:29:51;17.06;71.53
67093;SHT31;54011;50.772;7.730;2022-09-16T15:32:18;17.64;70.43
67093;SHT31;54011;50.772;7.730;2022-09-16T15:34:45;17.06;70.91
67093;SHT31;54011;50.772;7.730;2022-09-16T15:37:31;17.01;69.81
67093;SHT31;54011;50.772;7.730;2022-09-16T15:40:17;17.08;70.90
67093;SHT31;54011;50.772;7.730;2022-09-16T15:42:45;15.51;75.36
67093;SHT31;54011;50.772;7.730;2022-09-16T15:45:16;14.40;79.44
67093;SHT31;54011;50.772;7.730;2022-09-16T15:50:21;15.58;74.95
67093;SHT31;54011;50.772;7.730;2022-09-16T15:55:42;16.48;70.79
67093;SHT31;54011;50.772;7.730;2022-09-16T16:01:09;14.01;78.00
67093;SHT31;54011;50.772;7.730;2022-09-16T16:06:13;12.61;81.15
67093;SHT31;54011;50.772;7.730;2022-09-16T16:08:49;12.26;83.14
67093;SHT31;54011;50.772;7.730;2022-09-16T16:11:19;12.21;84.50
67093;SHT31;54011;50.772;7.730;2022-09-16T16:13:46;12.10;84.15
67093;SHT31;54011;50.772;7.730;2022-09-16T16:16:13;11.94;84.73
67093;SHT31;54011;50.772;7.730;2022-09-16T16:18:40;11.90;85.30
67093;SHT31;54011;50.772;7.730;2022-09-16T16:21:08;11.94;85.01
67093;SHT31;54011;50.772;7.730;2022-09-16T16:23:35;12.12;85.84
67093;SHT31;54011;50.772;7.730;2022-09-16T16:26:02;12.61;83.36
67093;SHT31;54011;50.772;7.730;2022-09-16T16:28:28;12.57;83.86
67093;SHT31;54011;50.772;7.730;2022-09-16T16:31:06;12.62;84.49
67093;SHT31;54011;50.772;7.730;2022-09-16T16:33:32;12.72;84.04
67093;SHT31;54011;50.772;7.730;2022-09-16T16:35:57;12.78;83.71
67093;SHT31;54011;50.772;7.730;2022-09-16T16:38:24;12.61;84.46
67093;SHT31;54011;50.772;7.730;2022-09-16T16:40:49;12.64;85.64
67093;SHT31;54011;50.772;7.730;2022-09-16T16:43:15;12.49;84.39
67093;SHT31;54011;50.772;7.730;2022-09-16T16:45:40;12.33;85.24
67093;SHT31;54011;50.772;7.730;2022-09-16T16:48:06;12.74;83.68
67093;SHT31;54011;50.772;7.730;2022-09-16T16:50:32;12.97;83.02
67093;SHT31;54011;50.772;7.730;2022-09-16T16:52:57;12.84;83.94
67093;SHT31;54011;50.772;7.730;2022-09-16T16:55:22;12.65;84.64
67093;SHT31;54011;50.772;7.730;2022-09-16T16:57:48;12.51;86.37
67093;SHT31;54011;50.772;7.730;2022-09-16T17:00:14;12.52;85.27
67093;SHT31;54011;50.772;7.730;2022-09-16T17:02:41;12.52;85.84
67093;SHT31;54011;50.772;7.730;2022-09-16T17:05:06;12.40;85.10
67093;SHT31;54011;50.772;7.730;2022-09-16T17:07:32;12.49;84.74
67093;SHT31;54011;50.772;7.730;2022-09-16T17:09:57;12.59;85.00
67093;SHT31;54011;50.772;7.730;2022-09-16T17:12:23;12.62;84.02
67093;SHT31;54011;50.772;7.730;2022-09-16T17:14:48;12.48;84.62
67093;SHT31;54011;50.772;7.730;2022-09-16T17:17:14;12.48;84.67
67093;SHT31;54011;50.772;7.730;2022-09-16T17:19:39;12.30;85.31
67093;SHT31;54011;50.772;7.730;2022-09-16T17:22:05;12.07;84.85
67093;SHT31;54011;50.772;7.730;2022-09-16T17:24:30;11.76;85.62
67093;SHT31;54011;50.772;7.730;2022-09-16T17:26:58;11.58;84.46
67093;SHT31;54011;50.772;7.730;2022-09-16T17:29:24;11.46;83.67
67093;SHT31;54011;50.772;7.730;2022-09-16T17:31:49;11.38;84.60
67093;SHT31;54011;50.772;7.730;2022-09-16T17:34:15;11.24;83.67
67093;SHT31;54011;50.772;7.730;2022-09-16T17:36:44;11.18;84.09
67093;SHT31;54011;50.772;7.730;2022-09-16T17:39:20;11.08;85.52
67093;SHT31;54011;50.772;7.730;2022-09-16T17:41:52;11.01;85.27
67093;SHT31;54011;50.772;7.730;2022-09-16T17:44:20;10.85;85.71
67093;SHT31;54011;50.772;7.730;2022-09-16T17:46:46;10.74;86.55
67093;SHT31;54011;50.772;7.730;2022-09-16T17:49:14;10.77;87.37
67093;SHT31;54011;50.772;7.730;2022-09-16T17:51:40;10.68;86.75
67093;SHT31;54011;50.772;7.730;2022-09-16T17:54:07;10.57;87.49
67093;SHT31;54011;50.772;7.730;2022-09-16T17:56:33;10.59;87.31
67093;SHT31;54011;50.772;7.730;2022-09-16T17:58:58;10.57;87.69
67093;SHT31;54011;50.772;7.730;2022-09-16T18:01:25;10.49;87.88
67093;SHT31;54011;50.772;7.730;2022-09-16T18:03:53;10.47;88.52
67093;SHT31;54011;50.772;7.730;2022-09-16T18:06:22;10.49;88.28
67093;SHT31;54011;50.772;7.730;2022-09-16T18:08:48;10.33;88.45
67093;SHT31;54011;50.772;7.730;2022-09-16T18:11:15;10.36;88.11
67093;SHT31;54011;50.772;7.730;2022-09-16T18:13:41;10.29;88.55
67093;SHT31;54011;50.772;7.730;2022-09-16T18:16:10;10.26;88.50
67093;SHT31;54011;50.772;7.730;2022-09-16T18:18:37;10.12;88.82
67093;SHT31;54011;50.772;7.730;2022-09-16T18:21:05;10.18;88.98
67093;SHT31;54011;50.772;7.730;2022-09-16T18:23:30;10.19;89.02
67093;SHT31;54011;50.772;7.730;2022-09-16T18:25:56;9.99;89.36
67093;SHT31;54011;50.772;7.730;2022-09-16T18:28:26;9.98;89.63
67093;SHT31;54011;50.772;7.730;2022-09-16T18:31:06;9.94;89.03
67093;SHT31;54011;50.772;7.730;2022-09-16T18:33:32;9.95;88.76